Check out our new BloomSky Weather System.

Active alerts


No alerts


Thunder radar  blitzortung!


Rain radar more information rain snow radar


Visit our other weather sites:

Template documentation
and downloads

And another site



Weather Underground History page Text

Daily Summary for May 29, 2017 Units:  English    Metric   Both
« Previous Day
Next Day »
Daily Weekly Monthly Yearly Custom
  High: Low: Average:
Temperature: 83.1 °F 68.4 °F 74.6 °F
Dew Point: 73.0 °F 67.3 °F 70.5 °F
Humidity: 97 % 70 % 88 %
Wind Speed: 10.0 mph 0.0 mph 1.1 mph
Wind Gust: 20.0 mph - -
Wind:- - SSW
Pressure: 30.05 in 29.85 in -
Precipitation: 0.26 in    
Historical Graphs
 
 
Tabular Data for May 29, 2017
Time Temperature Dew Point Pressure Wind Wind Speed Wind Gust Humidity Rainfall Rate (Hourly)
00:02 71.4 °F 69.6 °F 30.03 in Calm   4.0 mph 94 % 0.39 in
00:07 71.2 °F 69.4 °F 30.03 in Calm   4.0 mph 94 % 0.43 in
00:12 71.2 °F 69.4 °F 30.02 in East 2.0 mph 3.0 mph 94 % 0.46 in
00:17 71.2 °F 69.8 °F 30.01 in Calm   3.0 mph 95 % 0.50 in
00:22 71.2 °F 69.8 °F 30.01 in East 1.0 mph 4.0 mph 95 % 0.53 in
00:27 71.2 °F 69.8 °F 30.01 in NNE 2.0 mph 8.0 mph 95 % 0.54 in
00:32 71.2 °F 69.8 °F 30.00 in ENE 6.0 mph 8.0 mph 95 % 0.52 in
00:37 71.2 °F 69.8 °F 30.01 in SE 1.0 mph 8.0 mph 95 % 0.48 in
00:38 71.2 °F 70.0 °F 30.00 in East 3.0 mph 8.0 mph 96 % 0.48 in
00:43 71.2 °F 70.0 °F 29.99 in ESE 1.0 mph 7.0 mph 96 % 0.38 in
00:48 71.1 °F 69.8 °F 29.98 in ESE 1.0 mph 10.0 mph 96 % 0.33 in
00:53 71.1 °F 69.8 °F 29.98 in NE 1.0 mph 10.0 mph 96 % 0.28 in
00:58 71.1 °F 69.8 °F 29.99 in NE 1.0 mph 10.0 mph 96 % 0.24 in
01:03 71.1 °F 69.8 °F 30.00 in East 3.0 mph 8.0 mph 96 % 0.19 in
01:08 71.1 °F 69.8 °F 30.00 in SSE 3.0 mph 7.0 mph 96 % 0.16 in
01:13 71.1 °F 69.8 °F 29.99 in South 2.0 mph 7.0 mph 96 % 0.13 in
01:18 71.1 °F 69.8 °F 29.98 in ENE 4.0 mph 7.0 mph 96 % 0.09 in
01:23 70.9 °F 69.6 °F 29.97 in North 3.0 mph 7.0 mph 96 % 0.07 in
01:28 70.9 °F 69.6 °F 29.97 in East 1.0 mph 7.0 mph 96 % 0.06 in
01:33 70.9 °F 69.6 °F 29.97 in East 1.0 mph 9.0 mph 96 % 0.06 in
01:38 70.9 °F 69.6 °F 29.97 in East 3.0 mph 9.0 mph 96 % 0.06 in
01:43 70.7 °F 69.4 °F 29.96 in ESE 1.0 mph 9.0 mph 96 % 0.07 in
01:48 70.7 °F 69.4 °F 29.95 in SE 2.0 mph 9.0 mph 96 % 0.06 in
01:53 70.5 °F 69.6 °F 29.91 in East 5.0 mph 10.0 mph 97 % 0.07 in
01:58 70.5 °F 69.6 °F 29.90 in SE 10.0 mph 11.0 mph 97 % 0.07 in
02:03 70.5 °F 69.6 °F 29.88 in ESE 10.0 mph 17.0 mph 97 % 0.07 in
02:08 70.5 °F 69.6 °F 29.87 in SE 7.0 mph 18.0 mph 97 % 0.06 in
02:13 70.5 °F 69.6 °F 29.88 in ENE 3.0 mph 20.0 mph 97 % 0.06 in
02:19 70.3 °F 69.4 °F 29.89 in East 2.0 mph 20.0 mph 97 % 0.06 in
02:24 70.3 °F 69.4 °F 29.90 in East 2.0 mph 20.0 mph 97 % 0.05 in
02:29 70.5 °F 69.6 °F 29.90 in SE 1.0 mph 9.0 mph 97 % 0.04 in
02:34 70.5 °F 69.6 °F 29.89 in Calm   7.0 mph 97 % 0.03 in
02:39 70.5 °F 69.3 °F 29.88 in Calm   7.0 mph 96 % 0.02 in
02:44 70.3 °F 69.1 °F 29.88 in ESE 1.0 mph 7.0 mph 96 % 0.01 in
02:49 70.3 °F 69.1 °F 29.88 in Calm   7.0 mph 96 % 0.00 in
02:50 70.3 °F 69.1 °F 29.88 in Calm   7.0 mph 96 % 0.00 in
02:55 70.3 °F 69.1 °F 29.88 in Calm   7.0 mph 96 % 0.00 in
03:00 70.3 °F 69.1 °F 29.88 in NW 1.0 mph 5.0 mph 96 % 0.00 in
03:05 70.3 °F 69.4 °F 29.89 in NNW 2.0 mph 4.0 mph 97 % 0.00 in
03:10 70.3 °F 69.1 °F 29.90 in NNW 3.0 mph 4.0 mph 96 % 0.00 in
03:15 70.3 °F 69.1 °F 29.91 in NNW 2.0 mph 5.0 mph 96 % 0.00 in
03:20 70.3 °F 69.1 °F 29.91 in North 1.0 mph 5.0 mph 96 % 0.00 in
03:25 70.3 °F 69.1 °F 29.92 in NNW 2.0 mph 5.0 mph 96 % 0.00 in
03:30 70.3 °F 69.1 °F 29.92 in NW 1.0 mph 4.0 mph 96 % 0.00 in
03:35 70.3 °F 69.1 °F 29.91 in East 2.0 mph 4.0 mph 96 % 0.00 in
03:45 70.0 °F 68.7 °F 29.90 in Calm   5.0 mph 96 % 0.00 in
03:50 70.0 °F 68.7 °F 29.90 in Calm   5.0 mph 96 % 0.00 in
03:55 70.0 °F 68.7 °F 29.91 in Calm   5.0 mph 96 % 0.00 in
04:00 70.0 °F 68.7 °F 29.90 in Calm   3.0 mph 96 % 0.00 in
04:05 69.6 °F 68.4 °F 29.89 in North 1.0 mph 3.0 mph 96 % 0.00 in
04:10 69.6 °F 68.4 °F 29.88 in Calm   3.0 mph 96 % 0.00 in
04:12 69.6 °F 68.4 °F 29.88 in Calm   3.0 mph 96 % 0.00 in
04:17 69.6 °F 68.4 °F 29.87 in Calm   3.0 mph 96 % 0.00 in
04:22 69.4 °F 68.2 °F 29.87 in Calm   4.0 mph 96 % 0.00 in
04:27 69.3 °F 68.0 °F 29.87 in North 1.0 mph 4.0 mph 96 % 0.00 in
04:32 69.3 °F 68.0 °F 29.87 in Calm   4.0 mph 96 % 0.00 in
04:37 69.1 °F 67.8 °F 29.87 in NNW 2.0 mph 4.0 mph 96 % 0.00 in
04:42 69.1 °F 67.8 °F 29.87 in Calm   3.0 mph 96 % 0.00 in
04:47 69.1 °F 67.8 °F 29.87 in Calm   3.0 mph 96 % 0.00 in
04:52 69.1 °F 67.8 °F 29.86 in Calm   3.0 mph 96 % 0.00 in
04:57 69.1 °F 68.2 °F 29.86 in Calm   3.0 mph 97 % 0.00 in
05:02 68.9 °F 67.6 °F 29.85 in WNW 2.0 mph 3.0 mph 96 % 0.00 in
05:07 68.9 °F 68.0 °F 29.86 in Calm   3.0 mph 97 % 0.00 in
05:12 68.7 °F 67.5 °F 29.85 in Calm   3.0 mph 96 % 0.00 in
05:17 68.5 °F 67.3 °F 29.86 in Calm   3.0 mph 96 % 0.00 in
05:22 68.5 °F 67.3 °F 29.86 in Calm   3.0 mph 96 % 0.00 in
05:27 68.4 °F 67.5 °F 29.86 in Calm   2.0 mph 97 % 0.00 in
05:32 68.4 °F 67.5 °F 29.87 in Calm   2.0 mph 97 % 0.00 in
05:37 68.5 °F 67.6 °F 29.88 in Calm     97 % 0.00 in
05:42 68.5 °F 67.6 °F 29.89 in Calm   2.0 mph 97 % 0.00 in
05:47 68.5 °F 67.6 °F 29.90 in Calm   2.0 mph 97 % 0.00 in
05:52 68.5 °F 67.6 °F 29.91 in SE 1.0 mph 2.0 mph 97 % 0.00 in
05:57 68.9 °F 68.0 °F 29.91 in Calm   2.0 mph 97 % 0.00 in
06:02 68.9 °F 68.0 °F 29.92 in Calm   2.0 mph 97 % 0.00 in
06:07 68.9 °F 68.0 °F 29.92 in SE 1.0 mph 2.0 mph 97 % 0.00 in
06:12 69.1 °F 68.2 °F 29.92 in Calm   1.0 mph 97 % 0.00 in
06:17 69.1 °F 68.2 °F 29.93 in Calm   1.0 mph 97 % 0.00 in
06:22 69.1 °F 68.2 °F 29.93 in Calm   1.0 mph 97 % 0.00 in
06:27 69.1 °F 68.2 °F 29.94 in Calm   2.0 mph 97 % 0.00 in
06:32 68.9 °F 68.0 °F 29.95 in Calm   2.0 mph 97 % 0.00 in
06:37 68.9 °F 68.0 °F 29.95 in Calm   2.0 mph 97 % 0.00 in
06:42 68.9 °F 68.0 °F 29.96 in Calm   1.0 mph 97 % 0.00 in
06:47 68.9 °F 68.0 °F 29.96 in Calm   1.0 mph 97 % 0.00 in
06:52 69.1 °F 68.2 °F 29.97 in ESE 1.0 mph 1.0 mph 97 % 0.00 in
06:57 69.1 °F 68.2 °F 29.97 in SE 1.0 mph 1.0 mph 97 % 0.00 in
07:02 69.3 °F 68.4 °F 29.98 in South 1.0 mph 2.0 mph 97 % 0.00 in
07:07 69.3 °F 68.4 °F 29.99 in Calm   2.0 mph 97 % 0.00 in
07:12 69.3 °F 68.4 °F 29.99 in Calm   2.0 mph 97 % 0.00 in
07:17 69.3 °F 68.4 °F 29.99 in SE 1.0 mph 2.0 mph 97 % 0.00 in
07:22 69.3 °F 68.4 °F 29.99 in Calm   2.0 mph 97 % 0.00 in
07:27 69.3 °F 68.4 °F 29.99 in Calm   1.0 mph 97 % 0.00 in
07:32 69.3 °F 68.4 °F 29.99 in NW 2.0 mph 2.0 mph 97 % 0.00 in
07:37 69.3 °F 68.4 °F 29.99 in Calm   2.0 mph 97 % 0.00 in
07:42 69.3 °F 68.4 °F 29.99 in Calm   2.0 mph 97 % 0.00 in
07:47 69.4 °F 68.5 °F 30.00 in Calm   2.0 mph 97 % 0.00 in
07:52 69.4 °F 68.5 °F 30.00 in Calm   1.0 mph 97 % 0.00 in
07:57 69.4 °F 68.5 °F 30.00 in Calm   2.0 mph 97 % 0.00 in
08:02 69.4 °F 68.5 °F 30.00 in Calm   2.0 mph 97 % 0.00 in
08:07 69.4 °F 68.5 °F 30.00 in NNW 2.0 mph 3.0 mph 97 % 0.00 in
08:13 69.6 °F 68.7 °F 30.00 in NNW 1.0 mph 3.0 mph 97 % 0.00 in
08:18 69.6 °F 68.7 °F 30.00 in NNW 1.0 mph 3.0 mph 97 % 0.00 in
08:23 69.4 °F 68.5 °F 30.00 in NW 1.0 mph 2.0 mph 97 % 0.00 in
08:28 69.6 °F 68.7 °F 30.01 in NW 1.0 mph 2.0 mph 97 % 0.00 in
08:33 69.6 °F 68.7 °F 30.01 in NW 1.0 mph 3.0 mph 97 % 0.00 in
08:38 69.4 °F 68.5 °F 30.00 in NNW 1.0 mph 3.0 mph 97 % 0.00 in
08:43 69.4 °F 68.5 °F 30.00 in Calm   4.0 mph 97 % 0.00 in
08:48 69.6 °F 68.7 °F 30.00 in Calm   4.0 mph 97 % 0.00 in
08:53 69.8 °F 68.9 °F 30.01 in NNW 2.0 mph 4.0 mph 97 % 0.00 in
08:58 69.8 °F 68.9 °F 30.01 in Calm   3.0 mph 97 % 0.00 in
09:03 70.0 °F 69.1 °F 30.01 in Calm   3.0 mph 97 % 0.00 in
09:08 70.0 °F 69.1 °F 30.01 in NNW 2.0 mph 3.0 mph 97 % 0.00 in
09:13 70.0 °F 69.1 °F 30.01 in NNW 1.0 mph 3.0 mph 97 % 0.00 in
09:18 70.0 °F 69.1 °F 30.01 in Calm   3.0 mph 97 % 0.00 in
09:23 70.2 °F 69.3 °F 30.01 in Calm   3.0 mph 97 % 0.00 in
09:28 70.3 °F 69.4 °F 30.01 in NNW 1.0 mph 3.0 mph 97 % 0.00 in
09:33 70.3 °F 69.4 °F 30.01 in Calm   4.0 mph 97 % 0.00 in
09:38 70.3 °F 69.4 °F 30.02 in NW 1.0 mph 4.0 mph 97 % 0.00 in
09:43 70.5 °F 69.6 °F 30.02 in NW 3.0 mph 4.0 mph 97 % 0.00 in
09:48 70.7 °F 69.8 °F 30.03 in NW 2.0 mph 6.0 mph 97 % 0.00 in
09:53 70.9 °F 70.0 °F 30.04 in Calm   6.0 mph 97 % 0.00 in
09:58 70.9 °F 69.6 °F 30.04 in West 3.0 mph 6.0 mph 96 % 0.00 in
10:03 70.7 °F 69.4 °F 30.04 in NW 3.0 mph 6.0 mph 96 % 0.00 in
10:08 70.9 °F 69.6 °F 30.04 in Calm   6.0 mph 96 % 0.00 in
10:13 71.1 °F 69.8 °F 30.04 in NW 1.0 mph 6.0 mph 96 % 0.00 in
10:18 71.2 °F 70.0 °F 30.04 in West 1.0 mph 6.0 mph 96 % 0.00 in
10:23 71.4 °F 70.2 °F 30.04 in Calm   3.0 mph 96 % 0.00 in
10:28 71.8 °F 70.5 °F 30.04 in Calm   2.0 mph 96 % 0.00 in
10:33 71.8 °F 70.3 °F 30.04 in East 1.0 mph 2.0 mph 95 % 0.00 in
10:38 71.8 °F 70.3 °F 30.04 in East 1.0 mph 3.0 mph 95 % 0.00 in
10:43 72.0 °F 70.5 °F 30.04 in Calm   3.0 mph 95 % 0.00 in
10:48 72.1 °F 70.7 °F 30.04 in North 1.0 mph 4.0 mph 95 % 0.00 in
10:53 72.3 °F 70.9 °F 30.05 in Calm   4.0 mph 95 % 0.00 in
10:58 72.7 °F 70.9 °F 30.04 in Calm   4.0 mph 94 % 0.00 in
11:03 72.7 °F 70.9 °F 30.04 in Calm   3.0 mph 94 % 0.00 in
11:08 73.0 °F 71.2 °F 30.04 in NE 1.0 mph 2.0 mph 94 % 0.00 in
11:13 73.6 °F 71.8 °F 30.04 in ENE 2.0 mph 3.0 mph 94 % 0.00 in
11:18 73.8 °F 71.6 °F 30.04 in Calm   3.0 mph 93 % 0.00 in
11:23 73.9 °F 71.4 °F 30.04 in Calm   3.0 mph 92 % 0.00 in
11:28 74.3 °F 71.4 °F 30.04 in NNE 1.0 mph 3.0 mph 91 % 0.00 in
11:33 74.5 °F 71.6 °F 30.04 in Calm   4.0 mph 91 % 0.00 in
11:38 74.8 °F 72.0 °F 30.04 in NNW 2.0 mph 4.0 mph 91 % 0.00 in
11:43 75.2 °F 71.8 °F 30.04 in North 1.0 mph 4.0 mph 89 % 0.00 in
11:48 75.6 °F 71.8 °F 30.04 in NNW 1.0 mph 4.0 mph 88 % 0.00 in
11:58 76.1 °F 72.3 °F 30.04 in Calm   5.0 mph 88 % 0.00 in
12:03 76.5 °F 72.3 °F 30.03 in NNW 2.0 mph 5.0 mph 87 % 0.00 in
12:08 76.6 °F 72.5 °F 30.03 in Calm   5.0 mph 87 % 0.00 in
12:13 76.8 °F 72.3 °F 30.02 in Calm   4.0 mph 86 % 0.00 in
12:18 77.2 °F 72.3 °F 30.02 in Calm   4.0 mph 85 % 0.00 in
12:23 77.4 °F 72.5 °F 30.01 in Calm   5.0 mph 85 % 0.00 in
12:28 77.7 °F 72.5 °F 30.01 in NW 4.0 mph 5.0 mph 84 % 0.00 in
12:33 77.5 °F 72.3 °F 30.01 in NW 2.0 mph 5.0 mph 84 % 0.00 in
12:38 77.4 °F 71.8 °F 30.00 in NW 2.0 mph 8.0 mph 83 % 0.00 in
12:43 77.7 °F 72.5 °F 30.01 in NNW 1.0 mph 8.0 mph 84 % 0.00 in
12:48 77.9 °F 71.6 °F 30.00 in West 2.0 mph 8.0 mph 81 % 0.00 in
12:53 78.3 °F 72.7 °F 30.00 in Calm   6.0 mph 83 % 0.00 in
12:58 78.6 °F 72.3 °F 30.00 in Calm   6.0 mph 81 % 0.00 in
13:03 78.6 °F 72.0 °F 30.00 in NNW 2.0 mph 6.0 mph 80 % 0.00 in
13:08 78.8 °F 72.1 °F 30.00 in West 1.0 mph 5.0 mph 80 % 0.00 in
13:13 78.6 °F 71.6 °F 30.00 in NW 5.0 mph 5.0 mph 79 % 0.00 in
13:18 79.0 °F 73.0 °F 29.99 in West 3.0 mph 6.0 mph 82 % 0.00 in
13:23 78.8 °F 72.1 °F 29.99 in NNW 5.0 mph 8.0 mph 80 % 0.00 in
13:28 78.4 °F 72.1 °F 29.99 in WNW 2.0 mph 8.0 mph 81 % 0.00 in
13:38 79.5 °F 72.9 °F 29.99 in Calm   7.0 mph 80 % 0.00 in
13:43 79.5 °F 72.1 °F 29.99 in Calm   7.0 mph 78 % 0.00 in
13:48 79.9 °F 72.3 °F 29.99 in WSW 1.0 mph 5.0 mph 78 % 0.00 in
13:53 79.9 °F 72.3 °F 29.99 in NW 3.0 mph 5.0 mph 78 % 0.00 in
14:03 79.9 °F 72.9 °F 29.98 in NNW 4.0 mph 9.0 mph 79 % 0.00 in
14:08 80.1 °F 72.1 °F 29.98 in West 3.0 mph 9.0 mph 77 % 0.00 in
14:13 79.9 °F 71.6 °F 29.98 in WNW 2.0 mph 9.0 mph 76 % 0.00 in
14:19 79.7 °F 72.1 °F 29.98 in Calm   6.0 mph 78 % 0.00 in
14:24 79.7 °F 72.1 °F 29.98 in NW 3.0 mph 7.0 mph 78 % 0.00 in
14:29 79.9 °F 72.0 °F 29.98 in NNW 5.0 mph 7.0 mph 77 % 0.00 in
14:34 79.5 °F 71.6 °F 29.98 in WNW 2.0 mph 7.0 mph 77 % 0.00 in
14:39 79.3 °F 71.4 °F 29.98 in NW 4.0 mph 8.0 mph 77 % 0.00 in
14:44 79.3 °F 72.0 °F 29.98 in NNW 3.0 mph 8.0 mph 78 % 0.00 in
14:49 79.9 °F 72.0 °F 29.98 in NNW 3.0 mph 8.0 mph 77 % 0.00 in
14:54 80.1 °F 72.1 °F 29.98 in NW 2.0 mph 5.0 mph 77 % 0.00 in
14:59 80.1 °F 71.8 °F 29.98 in NW 1.0 mph 5.0 mph 76 % 0.00 in
15:04 79.9 °F 71.6 °F 29.98 in North 4.0 mph 7.0 mph 76 % 0.00 in
15:09 79.9 °F 71.6 °F 29.97 in NNW 3.0 mph 7.0 mph 76 % 0.00 in
15:14 80.2 °F 72.0 °F 29.97 in WNW 1.0 mph 7.0 mph 76 % 0.00 in
15:19 80.8 °F 72.1 °F 29.96 in NW 4.0 mph 7.0 mph 75 % 0.00 in
15:24 80.8 °F 72.5 °F 29.96 in NE 3.0 mph 7.0 mph 76 % 0.00 in
15:29 81.0 °F 72.3 °F 29.96 in NNW 4.0 mph 7.0 mph 75 % 0.00 in
15:34 81.3 °F 72.3 °F 29.96 in NW 3.0 mph 7.0 mph 74 % 0.00 in
15:39 81.1 °F 71.6 °F 29.96 in NW 2.0 mph 7.0 mph 73 % 0.00 in
15:44 81.0 °F 71.4 °F 29.96 in WNW 1.0 mph 9.0 mph 73 % 0.00 in
15:49 81.1 °F 72.1 °F 29.96 in WNW 3.0 mph 9.0 mph 74 % 0.00 in
15:54 81.3 °F 71.8 °F 29.97 in North 4.0 mph 9.0 mph 73 % 0.00 in
15:59 81.5 °F 72.3 °F 29.97 in NW 3.0 mph 7.0 mph 74 % 0.00 in
16:04 81.5 °F 72.0 °F 29.97 in ENE 1.0 mph 7.0 mph 73 % 0.00 in
16:09 81.3 °F 72.3 °F 29.97 in ESE 2.0 mph 7.0 mph 74 % 0.00 in
16:14 81.3 °F 72.7 °F 29.98 in North 2.0 mph 5.0 mph 75 % 0.00 in
16:19 81.3 °F 72.7 °F 29.98 in North 2.0 mph 5.0 mph 75 % 0.00 in
16:24 81.5 °F 72.3 °F 29.98 in Calm   5.0 mph 74 % 0.00 in
16:29 81.3 °F 72.3 °F 29.98 in North 1.0 mph 5.0 mph 74 % 0.00 in
16:34 81.3 °F 72.3 °F 29.98 in ENE 1.0 mph 3.0 mph 74 % 0.00 in
16:39 81.3 °F 72.3 °F 29.98 in Calm   3.0 mph 74 % 0.00 in
16:44 81.7 °F 72.5 °F 29.98 in Calm   3.0 mph 74 % 0.00 in
16:49 81.5 °F 72.0 °F 29.97 in SSE 1.0 mph 3.0 mph 73 % 0.00 in
16:54 81.3 °F 72.3 °F 29.97 in ESE 3.0 mph 4.0 mph 74 % 0.00 in
16:59 81.3 °F 72.3 °F 29.97 in Calm   5.0 mph 74 % 0.00 in
17:04 81.5 °F 72.3 °F 29.97 in Calm   5.0 mph 74 % 0.00 in
17:09 81.3 °F 71.8 °F 29.97 in NE 3.0 mph 5.0 mph 73 % 0.00 in
17:10 81.3 °F 71.8 °F 29.97 in ENE 3.0 mph 4.0 mph 73 % 0.00 in
17:15 81.0 °F 72.0 °F 29.97 in SE 1.0 mph 4.0 mph 74 % 0.00 in
17:20 81.1 °F 72.5 °F 29.96 in Calm   4.0 mph 75 % 0.00 in
17:25 81.1 °F 72.1 °F 29.96 in Calm   4.0 mph 74 % 0.00 in
17:30 81.3 °F 72.3 °F 29.97 in Calm   4.0 mph 74 % 0.00 in
17:35 81.7 °F 72.5 °F 29.97 in Calm   4.0 mph 74 % 0.00 in
17:40 82.0 °F 72.5 °F 29.97 in ENE 2.0 mph 4.0 mph 73 % 0.00 in
17:45 81.9 °F 72.0 °F 29.97 in Calm   3.0 mph 72 % 0.00 in
17:50 81.7 °F 71.8 °F 29.97 in Calm   6.0 mph 72 % 0.00 in
17:55 81.7 °F 72.5 °F 29.97 in East 1.0 mph 6.0 mph 74 % 0.00 in
18:00 81.9 °F 72.7 °F 29.96 in East 1.0 mph 6.0 mph 74 % 0.00 in
18:05 82.2 °F 73.0 °F 29.96 in NNE 1.0 mph 3.0 mph 74 % 0.00 in
18:11 82.8 °F 72.9 °F 29.96 in Calm   3.0 mph 72 % 0.00 in
18:16 82.9 °F 72.1 °F 29.96 in East 1.0 mph 3.0 mph 70 % 0.00 in
18:21 82.8 °F 72.0 °F 29.96 in SE 1.0 mph 4.0 mph 70 % 0.00 in
18:26 82.4 °F 71.6 °F 29.96 in Calm   4.0 mph 70 % 0.00 in
18:31 82.6 °F 72.1 °F 29.96 in Calm   4.0 mph 71 % 0.00 in
18:36 82.9 °F 72.5 °F 29.96 in South 2.0 mph 6.0 mph 71 % 0.00 in
18:41 83.1 °F 72.3 °F 29.96 in NW 1.0 mph 6.0 mph 70 % 0.00 in
18:46 82.8 °F 72.0 °F 29.96 in Calm   6.0 mph 70 % 0.00 in
18:51 83.1 °F 72.7 °F 29.95 in NNE 1.0 mph 4.0 mph 71 % 0.00 in
18:56 82.9 °F 72.5 °F 29.95 in NNW 4.0 mph 4.0 mph 71 % 0.00 in
19:01 82.4 °F 71.6 °F 29.95 in NNE 2.0 mph 5.0 mph 70 % 0.00 in
19:06 81.7 °F 71.4 °F 29.95 in East 2.0 mph 5.0 mph 71 % 0.00 in
19:11 81.1 °F 71.2 °F 29.96 in Calm   5.0 mph 72 % 0.00 in
19:16 81.0 °F 71.4 °F 29.96 in ESE 1.0 mph 5.0 mph 73 % 0.00 in
19:21 81.0 °F 71.4 °F 29.96 in Calm   5.0 mph 73 % 0.00 in
19:26 80.4 °F 71.4 °F 29.96 in North 1.0 mph 4.0 mph 74 % 0.00 in
19:31 80.4 °F 71.8 °F 29.95 in Calm   4.0 mph 75 % 0.00 in
19:36 80.2 °F 72.0 °F 29.95 in NE 2.0 mph 3.0 mph 76 % 0.00 in
19:41 80.1 °F 71.8 °F 29.95 in East 1.0 mph 4.0 mph 76 % 0.00 in
19:46 80.1 °F 72.1 °F 29.95 in ESE 2.0 mph 4.0 mph 77 % 0.00 in
19:51 79.7 °F 71.8 °F 29.95 in Calm   4.0 mph 77 % 0.00 in
19:56 79.5 °F 72.1 °F 29.95 in Calm   4.0 mph 78 % 0.00 in
20:01 79.3 °F 72.0 °F 29.95 in NE 1.0 mph 4.0 mph 78 % 0.00 in
20:06 79.2 °F 72.1 °F 29.96 in NE 1.0 mph 3.0 mph 79 % 0.00 in
20:11 79.0 °F 72.3 °F 29.96 in ESE 1.0 mph 5.0 mph 80 % 0.00 in
20:16 78.6 °F 72.0 °F 29.96 in Calm   5.0 mph 80 % 0.00 in
20:21 78.4 °F 72.1 °F 29.96 in Calm   5.0 mph 81 % 0.00 in
20:26 78.3 °F 72.0 °F 29.96 in NE 1.0 mph 4.0 mph 81 % 0.00 in
20:31 78.1 °F 72.1 °F 29.96 in Calm   4.0 mph 82 % 0.00 in
20:36 77.7 °F 71.8 °F 29.96 in Calm   4.0 mph 82 % 0.00 in
20:41 77.5 °F 72.0 °F 29.96 in Calm   4.0 mph 83 % 0.00 in
20:46 77.4 °F 72.1 °F 29.96 in Calm   1.0 mph 84 % 0.00 in
20:51 77.2 °F 72.0 °F 29.96 in Calm   1.0 mph 84 % 0.00 in
20:56 77.0 °F 71.8 °F 29.96 in Calm   1.0 mph 84 % 0.00 in
21:01 76.6 °F 71.4 °F 29.96 in Calm   1.0 mph 84 % 0.00 in
21:06 76.5 °F 71.6 °F 29.96 in Calm   1.0 mph 85 % 0.00 in
21:11 76.5 °F 72.0 °F 29.96 in Calm   1.0 mph 86 % 0.00 in
21:16 76.5 °F 72.0 °F 29.96 in Calm   1.0 mph 86 % 0.00 in
21:21 76.3 °F 71.8 °F 29.96 in ESE 1.0 mph 1.0 mph 86 % 0.00 in
21:23 76.3 °F 71.8 °F 29.96 in East 1.0 mph 1.0 mph 86 % 0.00 in
21:28 76.1 °F 72.0 °F 29.96 in Calm   2.0 mph 87 % 0.00 in
21:33 75.9 °F 71.8 °F 29.96 in Calm   2.0 mph 87 % 0.00 in
21:38 75.9 °F 71.8 °F 29.96 in Calm   4.0 mph 87 % 0.00 in
21:43 75.7 °F 72.0 °F 29.96 in ENE 3.0 mph 4.0 mph 88 % 0.00 in
21:48 75.7 °F 72.0 °F 29.97 in Calm   4.0 mph 88 % 0.00 in
21:53 75.6 °F 71.8 °F 29.97 in ENE 2.0 mph 4.0 mph 88 % 0.00 in
21:58 75.6 °F 71.8 °F 29.97 in ESE 1.0 mph 4.0 mph 88 % 0.00 in
22:03 75.4 °F 71.6 °F 29.98 in Calm   3.0 mph 88 % 0.00 in
22:08 75.4 °F 72.0 °F 29.98 in Calm   2.0 mph 89 % 0.00 in
22:13 75.0 °F 71.6 °F 29.98 in Calm   2.0 mph 89 % 0.00 in
22:19 75.0 °F 71.6 °F 29.99 in Calm   2.0 mph 89 % 0.00 in
22:24 74.8 °F 71.4 °F 29.99 in Calm   1.0 mph 89 % 0.00 in
22:29 74.7 °F 71.2 °F 29.99 in Calm   1.0 mph 89 % 0.00 in
22:34 74.7 °F 71.6 °F 29.99 in Calm   1.0 mph 90 % 0.00 in
22:39 74.5 °F 71.4 °F 30.00 in Calm   1.0 mph 90 % 0.00 in
22:44 74.3 °F 71.2 °F 30.00 in Calm   1.0 mph 90 % 0.00 in
22:46 74.3 °F 71.2 °F 30.00 in Calm     90 % 0.00 in
22:51 74.1 °F 71.1 °F 30.00 in Calm     90 % 0.00 in
22:56 73.8 °F 70.7 °F 30.00 in Calm     90 % 0.00 in
23:01 73.8 °F 70.9 °F 30.00 in Calm     91 % 0.00 in
23:06 73.8 °F 70.9 °F 30.00 in Calm     91 % 0.00 in
23:11 73.6 °F 70.7 °F 30.00 in Calm     91 % 0.00 in
23:16 73.6 °F 70.7 °F 30.00 in Calm     91 % 0.00 in
23:21 73.2 °F 70.7 °F 30.00 in Calm     92 % 0.00 in
23:26 73.0 °F 70.5 °F 30.00 in Calm     92 % 0.00 in
23:28 73.0 °F 70.5 °F 30.00 in Calm     92 % 0.00 in
23:33 73.0 °F 70.5 °F 30.00 in Calm   1.0 mph 92 % 0.00 in
23:38 73.0 °F 70.5 °F 30.00 in Calm   1.0 mph 92 % 0.00 in
23:43 73.0 °F 70.9 °F 30.00 in Calm   1.0 mph 93 % 0.00 in
23:48 72.9 °F 70.7 °F 30.01 in Calm   1.0 mph 93 % 0.00 in
23:53 72.9 °F 70.7 °F 30.01 in Calm   1.0 mph 93 % 0.00 in
23:58 72.9 °F 70.7 °F 30.01 in Calm     93 % 0.00 in
Spring, Texas: Villages of Bridgestone
Compliments of Weather Underground - 2.75 mb

Script developed by  Jim McMurry - jmcmurry@mwt.net Adapted for the template by  Wim van der Kuil - Leuven-Template.eu

You find our weather info also at:

UK Metoffice

WeatherCloud

Weather Underground

Mid-South Weather Network

AWEKAS

Citizen Weather Observer Program (CWOP)

HAMweather, WeatherForYou, PWS Weather

Equipment we use:

Weather-station
Davis Vantage Vue

Weather-program
Meteohub

Weather-server
Debian 7.9 x86 (Guest)

Provider
DreamHost

Davis Vantage Vue

Meteohub

Debian 7.9 x86 (Guest)

DreamHost